sensor_id;sensor_type;location;lat;lon;timestamp;P1;durP1;ratioP1;P2;durP2;ratioP2
52942;SDS011;38809;53.300;6.614;2023-03-01T00:01:04;23.23;;;15.03;;
52942;SDS011;38809;53.300;6.614;2023-03-01T00:03:31;19.88;;;13.27;;
52942;SDS011;38809;53.300;6.614;2023-03-01T00:08:24;17.25;;;11.93;;
52942;SDS011;38809;53.300;6.614;2023-03-01T00:13:25;17.88;;;12.15;;
52942;SDS011;38809;53.300;6.614;2023-03-01T00:15:50;18.00;;;12.20;;
52942;SDS011;38809;53.300;6.614;2023-03-01T00:18:16;16.53;;;11.03;;
52942;SDS011;38809;53.300;6.614;2023-03-01T00:20:41;21.10;;;13.10;;
52942;SDS011;38809;53.300;6.614;2023-03-01T00:23:18;16.45;;;11.63;;
52942;SDS011;38809;53.300;6.614;2023-03-01T00:25:44;17.25;;;10.98;;
52942;SDS011;38809;53.300;6.614;2023-03-01T00:28:10;17.13;;;12.68;;
52942;SDS011;38809;53.300;6.614;2023-03-01T00:30:35;16.17;;;10.75;;
52942;SDS011;38809;53.300;6.614;2023-03-01T00:33:01;19.50;;;12.67;;
52942;SDS011;38809;53.300;6.614;2023-03-01T00:35:27;24.87;;;14.50;;
52942;SDS011;38809;53.300;6.614;2023-03-01T00:37:52;24.20;;;14.23;;
52942;SDS011;38809;53.300;6.614;2023-03-01T00:40:28;30.67;;;14.48;;
52942;SDS011;38809;53.300;6.614;2023-03-01T00:42:55;34.17;;;14.90;;
52942;SDS011;38809;53.300;6.614;2023-03-01T00:45:21;63.97;;;16.90;;
52942;SDS011;38809;53.300;6.614;2023-03-01T00:47:48;30.57;;;14.00;;
52942;SDS011;38809;53.300;6.614;2023-03-01T00:50:14;24.88;;;15.38;;
52942;SDS011;38809;53.300;6.614;2023-03-01T00:52:40;25.45;;;14.82;;
52942;SDS011;38809;53.300;6.614;2023-03-01T00:55:05;27.47;;;16.57;;
52942;SDS011;38809;53.300;6.614;2023-03-01T00:57:31;26.70;;;15.55;;
52942;SDS011;38809;53.300;6.614;2023-03-01T00:59:58;23.85;;;14.95;;
52942;SDS011;38809;53.300;6.614;2023-03-01T01:02:24;70.55;;;18.88;;
52942;SDS011;38809;53.300;6.614;2023-03-01T01:04:50;121.22;;;16.20;;
52942;SDS011;38809;53.300;6.614;2023-03-01T01:07:16;147.80;;;15.80;;
52942;SDS011;38809;53.300;6.614;2023-03-01T01:09:42;51.83;;;12.40;;
52942;SDS011;38809;53.300;6.614;2023-03-01T01:12:08;33.63;;;13.43;;
52942;SDS011;38809;53.300;6.614;2023-03-01T01:14:34;48.75;;;12.77;;
52942;SDS011;38809;53.300;6.614;2023-03-01T01:17:00;59.10;;;14.80;;
52942;SDS011;38809;53.300;6.614;2023-03-01T01:19:26;37.50;;;15.38;;
52942;SDS011;38809;53.300;6.614;2023-03-01T01:21:51;18.77;;;9.85;;
52942;SDS011;38809;53.300;6.614;2023-03-01T01:24:17;35.75;;;10.75;;
52942;SDS011;38809;53.300;6.614;2023-03-01T01:26:44;38.83;;;11.02;;
52942;SDS011;38809;53.300;6.614;2023-03-01T01:29:10;29.50;;;11.43;;
52942;SDS011;38809;53.300;6.614;2023-03-01T01:34:04;23.50;;;10.68;;
52942;SDS011;38809;53.300;6.614;2023-03-01T01:36:31;24.63;;;10.93;;
52942;SDS011;38809;53.300;6.614;2023-03-01T01:38:58;64.25;;;13.73;;
52942;SDS011;38809;53.300;6.614;2023-03-01T01:41:24;82.60;;;13.60;;
52942;SDS011;38809;53.300;6.614;2023-03-01T01:46:39;104.20;;;16.67;;
52942;SDS011;38809;53.300;6.614;2023-03-01T01:51:44;66.80;;;14.38;;
52942;SDS011;38809;53.300;6.614;2023-03-01T01:54:17;61.88;;;13.25;;
52942;SDS011;38809;53.300;6.614;2023-03-01T01:56:48;26.30;;;12.63;;
52942;SDS011;38809;53.300;6.614;2023-03-01T01:59:18;41.70;;;13.18;;
52942;SDS011;38809;53.300;6.614;2023-03-01T02:01:49;34.30;;;11.70;;
52942;SDS011;38809;53.300;6.614;2023-03-01T02:04:18;63.17;;;12.07;;
52942;SDS011;38809;53.300;6.614;2023-03-01T02:06:46;66.88;;;13.38;;
52942;SDS011;38809;53.300;6.614;2023-03-01T02:09:39;79.85;;;14.00;;
52942;SDS011;38809;53.300;6.614;2023-03-01T02:12:06;56.42;;;13.93;;
52942;SDS011;38809;53.300;6.614;2023-03-01T02:14:32;36.60;;;12.63;;
52942;SDS011;38809;53.300;6.614;2023-03-01T02:16:57;38.27;;;12.60;;
52942;SDS011;38809;53.300;6.614;2023-03-01T02:19:29;63.13;;;15.43;;
52942;SDS011;38809;53.300;6.614;2023-03-01T02:24:54;59.20;;;13.07;;
52942;SDS011;38809;53.300;6.614;2023-03-01T02:27:26;21.00;;;11.63;;
52942;SDS011;38809;53.300;6.614;2023-03-01T02:30:12;25.08;;;12.25;;
52942;SDS011;38809;53.300;6.614;2023-03-01T02:32:39;30.23;;;12.23;;
52942;SDS011;38809;53.300;6.614;2023-03-01T02:35:08;23.55;;;11.23;;
52942;SDS011;38809;53.300;6.614;2023-03-01T02:37:37;20.40;;;11.50;;
52942;SDS011;38809;53.300;6.614;2023-03-01T02:40:06;21.73;;;10.82;;
52942;SDS011;38809;53.300;6.614;2023-03-01T02:42:38;21.70;;;11.05;;
52942;SDS011;38809;53.300;6.614;2023-03-01T02:45:12;15.73;;;9.85;;
52942;SDS011;38809;53.300;6.614;2023-03-01T02:47:38;14.85;;;10.80;;
52942;SDS011;38809;53.300;6.614;2023-03-01T02:50:10;17.60;;;10.63;;
52942;SDS011;38809;53.300;6.614;2023-03-01T02:53:01;15.13;;;9.95;;
52942;SDS011;38809;53.300;6.614;2023-03-01T02:55:34;15.43;;;10.07;;
52942;SDS011;38809;53.300;6.614;2023-03-01T02:58:00;14.38;;;10.40;;
52942;SDS011;38809;53.300;6.614;2023-03-01T03:00:29;15.65;;;10.85;;
52942;SDS011;38809;53.300;6.614;2023-03-01T03:03:04;16.52;;;9.18;;
52942;SDS011;38809;53.300;6.614;2023-03-01T03:05:31;16.60;;;9.40;;
52942;SDS011;38809;53.300;6.614;2023-03-01T03:07:57;17.40;;;11.48;;
52942;SDS011;38809;53.300;6.614;2023-03-01T03:10:27;19.33;;;11.27;;
52942;SDS011;38809;53.300;6.614;2023-03-01T03:12:55;20.15;;;11.32;;
52942;SDS011;38809;53.300;6.614;2023-03-01T03:15:23;17.60;;;10.95;;
52942;SDS011;38809;53.300;6.614;2023-03-01T03:20:16;18.42;;;10.45;;
52942;SDS011;38809;53.300;6.614;2023-03-01T03:22:48;18.52;;;10.57;;
52942;SDS011;38809;53.300;6.614;2023-03-01T03:25:16;20.83;;;11.55;;
52942;SDS011;38809;53.300;6.614;2023-03-01T03:27:43;19.95;;;12.20;;
52942;SDS011;38809;53.300;6.614;2023-03-01T03:30:10;18.55;;;9.77;;
52942;SDS011;38809;53.300;6.614;2023-03-01T03:32:41;12.10;;;7.43;;
52942;SDS011;38809;53.300;6.614;2023-03-01T03:35:18;10.18;;;7.00;;
52942;SDS011;38809;53.300;6.614;2023-03-01T03:37:49;8.95;;;5.85;;
52942;SDS011;38809;53.300;6.614;2023-03-01T03:40:49;10.45;;;6.10;;
52942;SDS011;38809;53.300;6.614;2023-03-01T03:43:17;9.77;;;5.80;;
52942;SDS011;38809;53.300;6.614;2023-03-01T03:45:48;9.90;;;6.43;;
52942;SDS011;38809;53.300;6.614;2023-03-01T03:48:15;9.55;;;6.85;;
52942;SDS011;38809;53.300;6.614;2023-03-01T03:50:46;11.23;;;7.63;;
52942;SDS011;38809;53.300;6.614;2023-03-01T03:53:14;11.77;;;8.07;;
52942;SDS011;38809;53.300;6.614;2023-03-01T03:55:40;11.60;;;7.75;;
52942;SDS011;38809;53.300;6.614;2023-03-01T03:58:07;11.73;;;8.83;;
52942;SDS011;38809;53.300;6.614;2023-03-01T04:00:38;11.93;;;7.78;;
52942;SDS011;38809;53.300;6.614;2023-03-01T04:03:07;9.88;;;7.25;;
52942;SDS011;38809;53.300;6.614;2023-03-01T04:05:36;8.02;;;6.38;;
52942;SDS011;38809;53.300;6.614;2023-03-01T04:08:03;7.90;;;5.90;;
52942;SDS011;38809;53.300;6.614;2023-03-01T04:10:37;7.22;;;5.65;;
52942;SDS011;38809;53.300;6.614;2023-03-01T04:13:06;6.97;;;5.38;;
52942;SDS011;38809;53.300;6.614;2023-03-01T04:15:34;6.68;;;5.43;;
52942;SDS011;38809;53.300;6.614;2023-03-01T04:18:01;7.88;;;5.35;;
52942;SDS011;38809;53.300;6.614;2023-03-01T04:20:28;9.48;;;5.60;;
52942;SDS011;38809;53.300;6.614;2023-03-01T04:22:57;6.82;;;5.18;;
52942;SDS011;38809;53.300;6.614;2023-03-01T04:25:25;5.35;;;4.50;;
52942;SDS011;38809;53.300;6.614;2023-03-01T04:27:51;6.22;;;5.20;;
52942;SDS011;38809;53.300;6.614;2023-03-01T04:30:16;6.18;;;4.57;;
52942;SDS011;38809;53.300;6.614;2023-03-01T04:32:42;6.72;;;4.78;;
52942;SDS011;38809;53.300;6.614;2023-03-01T04:35:08;6.57;;;4.85;;
52942;SDS011;38809;53.300;6.614;2023-03-01T04:37:34;6.38;;;4.57;;
52942;SDS011;38809;53.300;6.614;2023-03-01T04:40:01;6.30;;;4.70;;
52942;SDS011;38809;53.300;6.614;2023-03-01T04:42:37;5.30;;;4.35;;
52942;SDS011;38809;53.300;6.614;2023-03-01T04:45:03;5.97;;;4.40;;
52942;SDS011;38809;53.300;6.614;2023-03-01T04:47:38;7.55;;;5.15;;
52942;SDS011;38809;53.300;6.614;2023-03-01T04:50:04;7.22;;;5.35;;
52942;SDS011;38809;53.300;6.614;2023-03-01T04:52:31;7.10;;;4.75;;
52942;SDS011;38809;53.300;6.614;2023-03-01T04:54:56;8.10;;;5.73;;
52942;SDS011;38809;53.300;6.614;2023-03-01T04:57:22;6.23;;;4.63;;
52942;SDS011;38809;53.300;6.614;2023-03-01T04:59:48;5.63;;;4.30;;
52942;SDS011;38809;53.300;6.614;2023-03-01T05:02:13;5.60;;;4.60;;
52942;SDS011;38809;53.300;6.614;2023-03-01T05:04:39;5.37;;;4.63;;
52942;SDS011;38809;53.300;6.614;2023-03-01T05:07:05;6.07;;;4.37;;
52942;SDS011;38809;53.300;6.614;2023-03-01T05:09:30;5.65;;;4.60;;
52942;SDS011;38809;53.300;6.614;2023-03-01T05:11:56;5.50;;;4.73;;
52942;SDS011;38809;53.300;6.614;2023-03-01T05:14:21;7.67;;;5.17;;
52942;SDS011;38809;53.300;6.614;2023-03-01T05:16:47;4.82;;;4.10;;
52942;SDS011;38809;53.300;6.614;2023-03-01T05:19:13;5.47;;;4.33;;
52942;SDS011;38809;53.300;6.614;2023-03-01T05:21:47;6.15;;;4.97;;
52942;SDS011;38809;53.300;6.614;2023-03-01T05:24:29;6.05;;;4.70;;
52942;SDS011;38809;53.300;6.614;2023-03-01T05:26:56;7.10;;;5.20;;
52942;SDS011;38809;53.300;6.614;2023-03-01T05:29:23;7.20;;;5.38;;
52942;SDS011;38809;53.300;6.614;2023-03-01T05:31:59;7.40;;;5.97;;
52942;SDS011;38809;53.300;6.614;2023-03-01T05:34:29;6.55;;;5.60;;
52942;SDS011;38809;53.300;6.614;2023-03-01T05:36:56;7.65;;;5.78;;
52942;SDS011;38809;53.300;6.614;2023-03-01T05:39:23;7.30;;;5.85;;
52942;SDS011;38809;53.300;6.614;2023-03-01T05:41:57;9.50;;;6.47;;
52942;SDS011;38809;53.300;6.614;2023-03-01T05:44:24;7.03;;;5.65;;
52942;SDS011;38809;53.300;6.614;2023-03-01T05:46:51;8.45;;;5.70;;
52942;SDS011;38809;53.300;6.614;2023-03-01T05:49:17;6.93;;;5.70;;
52942;SDS011;38809;53.300;6.614;2023-03-01T05:51:47;6.88;;;5.47;;
52942;SDS011;38809;53.300;6.614;2023-03-01T05:54:14;6.05;;;5.07;;
52942;SDS011;38809;53.300;6.614;2023-03-01T05:56:39;7.82;;;5.60;;
52942;SDS011;38809;53.300;6.614;2023-03-01T05:59:05;8.87;;;6.17;;
52942;SDS011;38809;53.300;6.614;2023-03-01T06:01:32;9.32;;;7.05;;
52942;SDS011;38809;53.300;6.614;2023-03-01T06:03:58;7.53;;;5.47;;
52942;SDS011;38809;53.300;6.614;2023-03-01T06:06:24;7.87;;;6.73;;
52942;SDS011;38809;53.300;6.614;2023-03-01T06:08:50;6.88;;;6.07;;
52942;SDS011;38809;53.300;6.614;2023-03-01T06:11:17;8.98;;;6.38;;
52942;SDS011;38809;53.300;6.614;2023-03-01T06:13:43;9.57;;;6.57;;
52942;SDS011;38809;53.300;6.614;2023-03-01T06:16:10;8.07;;;5.93;;
52942;SDS011;38809;53.300;6.614;2023-03-01T06:18:36;8.27;;;6.18;;
52942;SDS011;38809;53.300;6.614;2023-03-01T06:21:02;9.80;;;6.47;;
52942;SDS011;38809;53.300;6.614;2023-03-01T06:23:28;8.73;;;6.30;;
52942;SDS011;38809;53.300;6.614;2023-03-01T06:25:54;8.80;;;5.97;;
52942;SDS011;38809;53.300;6.614;2023-03-01T06:28:20;8.27;;;5.63;;
52942;SDS011;38809;53.300;6.614;2023-03-01T06:30:46;9.30;;;6.50;;
52942;SDS011;38809;53.300;6.614;2023-03-01T06:33:12;9.93;;;6.78;;
52942;SDS011;38809;53.300;6.614;2023-03-01T06:35:38;8.88;;;6.15;;
52942;SDS011;38809;53.300;6.614;2023-03-01T06:38:04;9.27;;;6.50;;
52942;SDS011;38809;53.300;6.614;2023-03-01T06:40:30;9.02;;;6.30;;
52942;SDS011;38809;53.300;6.614;2023-03-01T06:42:57;9.13;;;6.80;;
52942;SDS011;38809;53.300;6.614;2023-03-01T06:47:49;10.95;;;7.40;;
52942;SDS011;38809;53.300;6.614;2023-03-01T06:50:16;8.27;;;5.78;;
52942;SDS011;38809;53.300;6.614;2023-03-01T06:52:42;9.07;;;6.13;;
52942;SDS011;38809;53.300;6.614;2023-03-01T06:55:10;13.55;;;8.05;;
52942;SDS011;38809;53.300;6.614;2023-03-01T06:57:36;15.57;;;9.38;;
52942;SDS011;38809;53.300;6.614;2023-03-01T07:00:05;16.50;;;10.38;;
52942;SDS011;38809;53.300;6.614;2023-03-01T07:02:32;18.77;;;10.75;;
52942;SDS011;38809;53.300;6.614;2023-03-01T07:04:57;17.40;;;10.73;;
52942;SDS011;38809;53.300;6.614;2023-03-01T07:07:23;18.77;;;11.68;;
52942;SDS011;38809;53.300;6.614;2023-03-01T07:09:49;29.60;;;12.98;;
52942;SDS011;38809;53.300;6.614;2023-03-01T07:12:15;42.83;;;13.67;;
52942;SDS011;38809;53.300;6.614;2023-03-01T07:14:41;22.27;;;12.40;;
52942;SDS011;38809;53.300;6.614;2023-03-01T07:17:08;20.40;;;13.35;;
52942;SDS011;38809;53.300;6.614;2023-03-01T07:19:34;21.67;;;12.40;;
52942;SDS011;38809;53.300;6.614;2023-03-01T07:22:00;21.57;;;12.33;;
52942;SDS011;38809;53.300;6.614;2023-03-01T07:24:25;21.67;;;10.73;;
52942;SDS011;38809;53.300;6.614;2023-03-01T07:26:51;21.38;;;12.20;;
52942;SDS011;38809;53.300;6.614;2023-03-01T07:29:18;16.45;;;10.13;;
52942;SDS011;38809;53.300;6.614;2023-03-01T07:31:44;13.18;;;9.18;;
52942;SDS011;38809;53.300;6.614;2023-03-01T07:34:10;14.40;;;10.18;;
52942;SDS011;38809;53.300;6.614;2023-03-01T07:36:36;14.02;;;9.77;;
52942;SDS011;38809;53.300;6.614;2023-03-01T07:39:02;13.90;;;9.15;;
52942;SDS011;38809;53.300;6.614;2023-03-01T07:41:28;17.27;;;10.43;;
52942;SDS011;38809;53.300;6.614;2023-03-01T07:43:54;15.82;;;10.80;;
52942;SDS011;38809;53.300;6.614;2023-03-01T07:46:20;15.70;;;10.55;;
52942;SDS011;38809;53.300;6.614;2023-03-01T07:48:46;12.98;;;9.15;;
52942;SDS011;38809;53.300;6.614;2023-03-01T07:51:12;12.73;;;9.00;;
52942;SDS011;38809;53.300;6.614;2023-03-01T07:53:38;12.95;;;8.80;;
52942;SDS011;38809;53.300;6.614;2023-03-01T07:56:05;12.68;;;8.52;;
52942;SDS011;38809;53.300;6.614;2023-03-01T07:58:36;12.13;;;8.70;;
52942;SDS011;38809;53.300;6.614;2023-03-01T08:01:03;11.27;;;8.95;;
52942;SDS011;38809;53.300;6.614;2023-03-01T08:03:30;13.63;;;9.73;;
52942;SDS011;38809;53.300;6.614;2023-03-01T08:05:58;14.60;;;9.70;;
52942;SDS011;38809;53.300;6.614;2023-03-01T08:08:25;13.07;;;9.40;;
52942;SDS011;38809;53.300;6.614;2023-03-01T08:10:50;13.83;;;10.07;;
52942;SDS011;38809;53.300;6.614;2023-03-01T08:13:16;15.50;;;10.70;;
52942;SDS011;38809;53.300;6.614;2023-03-01T08:15:47;14.98;;;10.70;;
52942;SDS011;38809;53.300;6.614;2023-03-01T08:18:17;14.30;;;9.75;;
52942;SDS011;38809;53.300;6.614;2023-03-01T08:20:44;13.70;;;11.18;;
52942;SDS011;38809;53.300;6.614;2023-03-01T08:23:10;14.77;;;11.00;;
52942;SDS011;38809;53.300;6.614;2023-03-01T08:25:36;17.58;;;12.20;;
52942;SDS011;38809;53.300;6.614;2023-03-01T08:28:01;20.83;;;13.10;;
52942;SDS011;38809;53.300;6.614;2023-03-01T08:30:27;19.17;;;13.07;;
52942;SDS011;38809;53.300;6.614;2023-03-01T08:32:53;19.30;;;13.37;;
52942;SDS011;38809;53.300;6.614;2023-03-01T08:35:19;18.27;;;13.45;;
52942;SDS011;38809;53.300;6.614;2023-03-01T08:37:45;22.10;;;15.85;;
52942;SDS011;38809;53.300;6.614;2023-03-01T08:40:11;18.43;;;13.63;;
52942;SDS011;38809;53.300;6.614;2023-03-01T08:42:39;22.02;;;16.30;;
52942;SDS011;38809;53.300;6.614;2023-03-01T08:45:06;24.20;;;16.77;;
52942;SDS011;38809;53.300;6.614;2023-03-01T08:47:32;24.98;;;17.75;;
52942;SDS011;38809;53.300;6.614;2023-03-01T08:49:59;25.42;;;17.95;;
52942;SDS011;38809;53.300;6.614;2023-03-01T08:52:25;29.23;;;20.17;;
52942;SDS011;38809;53.300;6.614;2023-03-01T08:54:52;33.92;;;23.23;;
52942;SDS011;38809;53.300;6.614;2023-03-01T08:57:18;31.40;;;22.13;;
52942;SDS011;38809;53.300;6.614;2023-03-01T08:59:43;35.17;;;22.35;;
52942;SDS011;38809;53.300;6.614;2023-03-01T09:02:13;34.63;;;23.42;;
52942;SDS011;38809;53.300;6.614;2023-03-01T09:04:40;32.53;;;23.05;;
52942;SDS011;38809;53.300;6.614;2023-03-01T09:07:07;37.83;;;24.98;;
52942;SDS011;38809;53.300;6.614;2023-03-01T09:11:59;38.63;;;25.00;;
52942;SDS011;38809;53.300;6.614;2023-03-01T09:14:25;36.17;;;24.88;;
52942;SDS011;38809;53.300;6.614;2023-03-01T09:16:51;35.58;;;23.52;;
52942;SDS011;38809;53.300;6.614;2023-03-01T09:19:17;33.57;;;23.53;;
52942;SDS011;38809;53.300;6.614;2023-03-01T09:21:42;37.43;;;25.97;;
52942;SDS011;38809;53.300;6.614;2023-03-01T09:24:18;37.08;;;25.38;;
52942;SDS011;38809;53.300;6.614;2023-03-01T09:26:48;37.67;;;26.63;;
52942;SDS011;38809;53.300;6.614;2023-03-01T09:29:15;40.85;;;27.73;;
52942;SDS011;38809;53.300;6.614;2023-03-01T09:31:42;42.38;;;28.38;;
52942;SDS011;38809;53.300;6.614;2023-03-01T09:34:08;39.38;;;28.17;;
52942;SDS011;38809;53.300;6.614;2023-03-01T09:36:34;38.97;;;27.52;;
52942;SDS011;38809;53.300;6.614;2023-03-01T09:39:01;35.78;;;25.65;;
52942;SDS011;38809;53.300;6.614;2023-03-01T09:44:16;37.10;;;25.17;;
52942;SDS011;38809;53.300;6.614;2023-03-01T09:46:47;39.22;;;26.52;;
52942;SDS011;38809;53.300;6.614;2023-03-01T09:49:29;34.33;;;24.92;;
52942;SDS011;38809;53.300;6.614;2023-03-01T09:54:29;33.22;;;22.70;;
52942;SDS011;38809;53.300;6.614;2023-03-01T09:59:27;33.47;;;23.40;;
52942;SDS011;38809;53.300;6.614;2023-03-01T10:08:19;24.38;;;17.13;;
52942;SDS011;38809;53.300;6.614;2023-03-01T10:15:50;24.45;;;16.73;;
52942;SDS011;38809;53.300;6.614;2023-03-01T10:18:37;26.55;;;19.02;;
52942;SDS011;38809;53.300;6.614;2023-03-01T10:23:42;28.40;;;19.40;;
52942;SDS011;38809;53.300;6.614;2023-03-01T10:29:09;22.92;;;17.48;;
52942;SDS011;38809;53.300;6.614;2023-03-01T10:31:37;24.35;;;17.40;;
52942;SDS011;38809;53.300;6.614;2023-03-01T10:34:10;23.20;;;15.60;;
52942;SDS011;38809;53.300;6.614;2023-03-01T10:36:38;22.38;;;15.82;;
52942;SDS011;38809;53.300;6.614;2023-03-01T10:39:11;20.98;;;16.02;;
52942;SDS011;38809;53.300;6.614;2023-03-01T10:41:44;19.77;;;14.30;;
52942;SDS011;38809;53.300;6.614;2023-03-01T10:44:44;20.88;;;15.88;;
52942;SDS011;38809;53.300;6.614;2023-03-01T10:50:03;19.92;;;14.68;;
52942;SDS011;38809;53.300;6.614;2023-03-01T10:52:35;20.92;;;13.32;;
52942;SDS011;38809;53.300;6.614;2023-03-01T10:55:04;19.08;;;13.25;;
52942;SDS011;38809;53.300;6.614;2023-03-01T10:57:49;18.63;;;14.05;;
52942;SDS011;38809;53.300;6.614;2023-03-01T11:00:30;18.15;;;13.88;;
52942;SDS011;38809;53.300;6.614;2023-03-01T11:05:25;20.10;;;13.65;;
52942;SDS011;38809;53.300;6.614;2023-03-01T11:07:55;20.65;;;14.88;;
52942;SDS011;38809;53.300;6.614;2023-03-01T11:10:24;19.92;;;14.57;;
52942;SDS011;38809;53.300;6.614;2023-03-01T11:12:52;17.63;;;10.55;;
52942;SDS011;38809;53.300;6.614;2023-03-01T11:17:51;21.25;;;15.15;;
52942;SDS011;38809;53.300;6.614;2023-03-01T11:20:36;21.10;;;15.43;;
52942;SDS011;38809;53.300;6.614;2023-03-01T11:23:13;18.83;;;14.68;;
52942;SDS011;38809;53.300;6.614;2023-03-01T11:25:41;21.05;;;15.70;;
52942;SDS011;38809;53.300;6.614;2023-03-01T11:28:10;17.90;;;12.40;;
52942;SDS011;38809;53.300;6.614;2023-03-01T11:30:43;19.02;;;13.43;;
52942;SDS011;38809;53.300;6.614;2023-03-01T11:33:12;19.15;;;13.48;;
52942;SDS011;38809;53.300;6.614;2023-03-01T11:36:59;18.10;;;11.57;;
52942;SDS011;38809;53.300;6.614;2023-03-01T11:39:04;18.75;;;13.57;;
52942;SDS011;38809;53.300;6.614;2023-03-01T11:41:42;19.48;;;12.30;;
52942;SDS011;38809;53.300;6.614;2023-03-01T11:44:11;18.20;;;13.25;;
52942;SDS011;38809;53.300;6.614;2023-03-01T11:55:30;11.43;;;8.18;;
52942;SDS011;38809;53.300;6.614;2023-03-01T11:58:39;10.57;;;8.43;;
52942;SDS011;38809;53.300;6.614;2023-03-01T12:06:39;13.13;;;9.13;;
52942;SDS011;38809;53.300;6.614;2023-03-01T12:09:38;13.63;;;8.55;;
52942;SDS011;38809;53.300;6.614;2023-03-01T12:28:49;10.23;;;8.23;;
52942;SDS011;38809;53.300;6.614;2023-03-01T12:42:54;12.95;;;8.20;;
52942;SDS011;38809;53.300;6.614;2023-03-01T12:51:04;13.20;;;10.10;;
52942;SDS011;38809;53.300;6.614;2023-03-01T12:53:36;13.50;;;9.95;;
52942;SDS011;38809;53.300;6.614;2023-03-01T12:56:11;11.88;;;8.15;;
52942;SDS011;38809;53.300;6.614;2023-03-01T12:58:46;14.45;;;8.82;;
52942;SDS011;38809;53.300;6.614;2023-03-01T13:04:05;13.95;;;11.38;;
52942;SDS011;38809;53.300;6.614;2023-03-01T13:17:49;15.10;;;11.65;;
52942;SDS011;38809;53.300;6.614;2023-03-01T13:20:16;14.30;;;11.02;;
52942;SDS011;38809;53.300;6.614;2023-03-01T13:22:44;16.17;;;12.05;;
52942;SDS011;38809;53.300;6.614;2023-03-01T13:25:13;15.15;;;12.00;;
52942;SDS011;38809;53.300;6.614;2023-03-01T13:27:41;14.55;;;11.07;;
52942;SDS011;38809;53.300;6.614;2023-03-01T13:30:38;15.30;;;11.35;;
52942;SDS011;38809;53.300;6.614;2023-03-01T13:35:48;17.25;;;11.70;;
52942;SDS011;38809;53.300;6.614;2023-03-01T13:41:46;12.60;;;10.07;;
52942;SDS011;38809;53.300;6.614;2023-03-01T13:44:13;12.60;;;10.13;;
52942;SDS011;38809;53.300;6.614;2023-03-01T13:49:28;11.15;;;9.32;;
52942;SDS011;38809;53.300;6.614;2023-03-01T13:52:01;11.02;;;8.63;;
52942;SDS011;38809;53.300;6.614;2023-03-01T13:54:31;11.95;;;9.55;;
52942;SDS011;38809;53.300;6.614;2023-03-01T13:56:58;14.30;;;9.60;;
52942;SDS011;38809;53.300;6.614;2023-03-01T13:59:25;10.95;;;6.88;;
52942;SDS011;38809;53.300;6.614;2023-03-01T14:01:55;12.98;;;9.63;;
52942;SDS011;38809;53.300;6.614;2023-03-01T14:04:23;11.43;;;9.00;;
52942;SDS011;38809;53.300;6.614;2023-03-01T14:07:16;14.52;;;10.38;;
52942;SDS011;38809;53.300;6.614;2023-03-01T14:09:44;13.73;;;9.93;;
52942;SDS011;38809;53.300;6.614;2023-03-01T14:13:00;13.63;;;10.13;;
52942;SDS011;38809;53.300;6.614;2023-03-01T14:15:27;12.32;;;9.85;;
52942;SDS011;38809;53.300;6.614;2023-03-01T14:20:41;12.88;;;9.77;;
52942;SDS011;38809;53.300;6.614;2023-03-01T14:23:14;13.13;;;9.88;;
52942;SDS011;38809;53.300;6.614;2023-03-01T14:25:50;11.90;;;9.20;;
52942;SDS011;38809;53.300;6.614;2023-03-01T14:28:25;12.02;;;9.77;;
52942;SDS011;38809;53.300;6.614;2023-03-01T14:31:02;15.05;;;9.90;;
52942;SDS011;38809;53.300;6.614;2023-03-01T14:36:26;11.23;;;8.15;;
52942;SDS011;38809;53.300;6.614;2023-03-01T14:38:54;12.02;;;9.98;;
52942;SDS011;38809;53.300;6.614;2023-03-01T14:41:20;14.20;;;10.38;;
52942;SDS011;38809;53.300;6.614;2023-03-01T14:43:58;14.80;;;11.23;;
52942;SDS011;38809;53.300;6.614;2023-03-01T14:49:14;16.02;;;12.00;;
52942;SDS011;38809;53.300;6.614;2023-03-01T14:51:42;15.10;;;11.15;;
52942;SDS011;38809;53.300;6.614;2023-03-01T14:54:37;14.00;;;10.10;;
52942;SDS011;38809;53.300;6.614;2023-03-01T14:57:21;15.02;;;10.02;;
52942;SDS011;38809;53.300;6.614;2023-03-01T14:59:53;15.13;;;11.32;;
52942;SDS011;38809;53.300;6.614;2023-03-01T15:02:24;13.80;;;11.35;;
52942;SDS011;38809;53.300;6.614;2023-03-01T15:04:51;13.60;;;10.50;;
52942;SDS011;38809;53.300;6.614;2023-03-01T15:07:21;14.10;;;10.75;;
52942;SDS011;38809;53.300;6.614;2023-03-01T15:09:59;13.18;;;10.38;;
52942;SDS011;38809;53.300;6.614;2023-03-01T15:12:37;12.32;;;10.43;;
52942;SDS011;38809;53.300;6.614;2023-03-01T15:17:50;13.35;;;11.35;;
52942;SDS011;38809;53.300;6.614;2023-03-01T15:20:20;13.82;;;11.10;;
52942;SDS011;38809;53.300;6.614;2023-03-01T15:22:50;13.57;;;10.82;;
52942;SDS011;38809;53.300;6.614;2023-03-01T15:27:48;12.68;;;10.45;;
52942;SDS011;38809;53.300;6.614;2023-03-01T15:33:34;15.40;;;11.35;;
52942;SDS011;38809;53.300;6.614;2023-03-01T15:35:54;17.05;;;12.95;;
52942;SDS011;38809;53.300;6.614;2023-03-01T15:38:32;17.58;;;14.02;;
52942;SDS011;38809;53.300;6.614;2023-03-01T15:41:23;17.88;;;14.48;;
52942;SDS011;38809;53.300;6.614;2023-03-01T15:43:56;17.65;;;14.57;;
52942;SDS011;38809;53.300;6.614;2023-03-01T15:46:38;21.75;;;14.88;;
52942;SDS011;38809;53.300;6.614;2023-03-01T15:49:05;18.83;;;14.43;;
52942;SDS011;38809;53.300;6.614;2023-03-01T15:51:54;19.30;;;14.27;;
52942;SDS011;38809;53.300;6.614;2023-03-01T15:54:21;18.33;;;14.85;;
52942;SDS011;38809;53.300;6.614;2023-03-01T15:56:49;20.17;;;14.93;;
52942;SDS011;38809;53.300;6.614;2023-03-01T15:59:16;21.00;;;14.35;;
52942;SDS011;38809;53.300;6.614;2023-03-01T16:01:42;18.98;;;15.15;;
52942;SDS011;38809;53.300;6.614;2023-03-01T16:04:09;17.83;;;14.80;;
52942;SDS011;38809;53.300;6.614;2023-03-01T16:06:45;19.27;;;14.05;;
52942;SDS011;38809;53.300;6.614;2023-03-01T16:09:12;19.95;;;13.40;;
52942;SDS011;38809;53.300;6.614;2023-03-01T16:11:38;19.85;;;13.23;;
52942;SDS011;38809;53.300;6.614;2023-03-01T16:14:05;19.45;;;14.02;;
52942;SDS011;38809;53.300;6.614;2023-03-01T16:16:31;18.33;;;13.07;;
52942;SDS011;38809;53.300;6.614;2023-03-01T16:18:57;18.90;;;12.80;;
52942;SDS011;38809;53.300;6.614;2023-03-01T16:21:23;17.57;;;12.90;;
52942;SDS011;38809;53.300;6.614;2023-03-01T16:23:50;18.13;;;13.63;;
52942;SDS011;38809;53.300;6.614;2023-03-01T16:26:16;19.25;;;13.95;;
52942;SDS011;38809;53.300;6.614;2023-03-01T16:28:43;17.35;;;13.43;;
52942;SDS011;38809;53.300;6.614;2023-03-01T16:31:10;20.83;;;13.70;;
52942;SDS011;38809;53.300;6.614;2023-03-01T16:33:39;18.05;;;12.70;;
52942;SDS011;38809;53.300;6.614;2023-03-01T16:36:10;17.98;;;12.88;;
52942;SDS011;38809;53.300;6.614;2023-03-01T16:38:37;17.50;;;13.15;;
52942;SDS011;38809;53.300;6.614;2023-03-01T16:43:30;16.80;;;12.02;;
52942;SDS011;38809;53.300;6.614;2023-03-01T16:45:57;16.23;;;13.00;;
52942;SDS011;38809;53.300;6.614;2023-03-01T16:48:24;18.65;;;12.85;;
52942;SDS011;38809;53.300;6.614;2023-03-01T16:53:23;21.33;;;14.82;;
52942;SDS011;38809;53.300;6.614;2023-03-01T16:55:58;19.97;;;13.93;;
52942;SDS011;38809;53.300;6.614;2023-03-01T16:58:24;15.07;;;12.57;;
52942;SDS011;38809;53.300;6.614;2023-03-01T17:00:52;18.92;;;13.85;;
52942;SDS011;38809;53.300;6.614;2023-03-01T17:03:22;15.30;;;13.05;;
52942;SDS011;38809;53.300;6.614;2023-03-01T17:05:49;15.32;;;11.63;;
52942;SDS011;38809;53.300;6.614;2023-03-01T17:08:15;15.05;;;11.90;;
52942;SDS011;38809;53.300;6.614;2023-03-01T17:10:41;16.42;;;12.40;;